Wetterdaten: Woche 23.12.13 - 29.12.13 (KW52)
Datum Zeit Temp. A. Feuchte A. Luftdruck Regen Wind Richtung Taupunkt Windchill Windben
23.12.2013 00:00 6,9 C 88 % 1012,1 hPa 0,0 l/m 6,4 km/h (2 Bft) S 5,0 C 6,6 C 15,2 km/h (3 Bft)
23.12.2013 01:00 6,6 C 88 % 1012,1 hPa 0,0 l/m 5,5 km/h (2 Bft) SW 4,8 C 6,5 C 14,5 km/h (3 Bft)
23.12.2013 02:00 6,3 C 89 % 1012,4 hPa 0,0 l/m 5,7 km/h (2 Bft) W-SW 4,6 C 6,3 C 13,0 km/h (3 Bft)
23.12.2013 03:00 6,3 C 87 % 1013,1 hPa 0,0 l/m 6,3 km/h (2 Bft) S-SW 4,3 C 6,1 C 14,0 km/h (3 Bft)
23.12.2013 04:00 6,0 C 87 % 1013,5 hPa 0,0 l/m 5,1 km/h (1 Bft) SW 4,0 C 5,9 C 12,3 km/h (2 Bft)
23.12.2013 05:00 5,5 C 88 % 1013,9 hPa 1,0 l/m 5,3 km/h (1 Bft) SW 3,7 C 5,1 C 13,7 km/h (3 Bft)
23.12.2013 06:00 5,0 C 89 % 1014,7 hPa 0,0 l/m 3,7 km/h (1 Bft) W-SW 3,3 C 5,0 C 9,8 km/h (2 Bft)
23.12.2013 07:00 5,2 C 88 % 1015,0 hPa 0,2 l/m 5,7 km/h (2 Bft) SW 3,4 C 4,7 C 13,3 km/h (3 Bft)
23.12.2013 08:00 4,7 C 90 % 1015,6 hPa 2,4 l/m 4,3 km/h (1 Bft) S-SW 3,2 C 4,5 C 11,9 km/h (2 Bft)
23.12.2013 09:00 4,0 C 91 % 1016,2 hPa 0,0 l/m 2,0 km/h (1 Bft) S-SW 2,7 C 4,0 C 5,2 km/h (1 Bft)
23.12.2013 10:00 4,6 C 91 % 1016,5 hPa 0,0 l/m 2,4 km/h (1 Bft) S-SW 3,3 C 4,6 C 6,0 km/h (2 Bft)
23.12.2013 11:00 6,5 C 86 % 1016,4 hPa 0,0 l/m 6,0 km/h (2 Bft) S-SW 4,4 C 6,4 C 15,0 km/h (3 Bft)
23.12.2013 12:00 7,3 C 82 % 1015,7 hPa 0,0 l/m 5,9 km/h (2 Bft) S-SW 4,4 C 7,0 C 13,7 km/h (3 Bft)
23.12.2013 13:00 7,7 C 79 % 1014,8 hPa 0,0 l/m 8,2 km/h (2 Bft) S-SW 4,3 C 6,3 C 16,4 km/h (3 Bft)
23.12.2013 14:00 7,8 C 79 % 1014,0 hPa 0,0 l/m 7,0 km/h (2 Bft) S 4,4 C 7,2 C 14,0 km/h (3 Bft)
23.12.2013 15:00 7,1 C 81 % 1013,1 hPa 0,0 l/m 5,8 km/h (2 Bft) S 4,0 C 6,8 C 12,3 km/h (2 Bft)
23.12.2013 16:00 6,1 C 84 % 1012,1 hPa 0,0 l/m 4,0 km/h (1 Bft) S-SO 3,5 C 6,1 C 9,4 km/h (2 Bft)
23.12.2013 17:00 5,5 C 86 % 1011,0 hPa 0,0 l/m 3,7 km/h (1 Bft) S-SO 3,3 C 5,5 C 8,6 km/h (2 Bft)
23.12.2013 18:00 6,0 C 84 % 1009,9 hPa 0,0 l/m 4,6 km/h (1 Bft) S-SO 3,6 C 5,9 C 9,9 km/h (2 Bft)
23.12.2013 19:00 6,9 C 83 % 1008,5 hPa 0,0 l/m 6,5 km/h (2 Bft) S-SO 4,2 C 6,6 C 14,2 km/h (3 Bft)
23.12.2013 20:00 7,7 C 83 % 1007,2 hPa 0,0 l/m 6,6 km/h (2 Bft) S 5,0 C 7,2 C 13,3 km/h (3 Bft)
23.12.2013 21:00 8,7 C 82 % 1006,1 hPa 0,0 l/m 9,7 km/h (2 Bft) S-SO 5,7 C 6,5 C 20,4 km/h (4 Bft)
23.12.2013 22:00 9,9 C 78 % 1004,7 hPa 0,0 l/m 14,2 km/h (3 Bft) S-SO 6,3 C 5,4 C 26,3 km/h (4 Bft)
23.12.2013 23:00 10,2 C 77 % 1003,6 hPa 0,0 l/m 13,4 km/h (3 Bft) S 6,3 C 6,1 C 25,1 km/h (4 Bft)
24.12.2013 00:00 10,4 C 75 % 1002,4 hPa 0,0 l/m 14,9 km/h (3 Bft) S-SW 6,2 C 5,7 C 28,7 km/h (5 Bft)
24.12.2013 01:00 10,7 C 73 % 1001,3 hPa 0,0 l/m 14,3 km/h (3 Bft) S 6,1 C 6,3 C 28,2 km/h (5 Bft)
24.12.2013 02:00 10,9 C 71 % 1000,5 hPa 0,0 l/m 14,4 km/h (3 Bft) SW 5,8 C 6,5 C 27,4 km/h (5 Bft)
24.12.2013 03:00 10,9 C 70 % 999,9 hPa 0,0 l/m 14,5 km/h (3 Bft) S 5,5 C 6,4 C 27,8 km/h (5 Bft)
24.12.2013 04:00 10,6 C 69 % 999,2 hPa 0,0 l/m 14,4 km/h (3 Bft) S-SW 5,2 C 6,2 C 28,2 km/h (5 Bft)
24.12.2013 05:00 10,3 C 69 % 998,5 hPa 0,0 l/m 13,8 km/h (3 Bft) S 4,9 C 6,1 C 26,7 km/h (4 Bft)
24.12.2013 06:00 10,1 C 69 % 997,9 hPa 0,0 l/m 12,2 km/h (2 Bft) SW 4,6 C 6,5 C 23,1 km/h (4 Bft)
24.12.2013 07:00 10,3 C 67 % 997,1 hPa 0,0 l/m 14,5 km/h (3 Bft) S 4,4 C 5,8 C 29,0 km/h (5 Bft)
24.12.2013 08:00 11,0 C 64 % 996,4 hPa 0,0 l/m 17,5 km/h (3 Bft) S 4,5 C 5,4 C 33,1 km/h (5 Bft)
24.12.2013 09:00 11,5 C 63 % 996,3 hPa 0,0 l/m 17,0 km/h (3 Bft) S-SW 4,6 C 6,2 C 33,8 km/h (5 Bft)
24.12.2013 10:00 11,9 C 62 % 996,1 hPa 0,0 l/m 16,1 km/h (3 Bft) S-SW 4,8 C 7,1 C 31,0 km/h (5 Bft)
24.12.2013 11:00 12,6 C 61 % 996,0 hPa 0,0 l/m 16,1 km/h (3 Bft) S-SO 5,2 C 7,9 C 29,8 km/h (5 Bft)
24.12.2013 12:00 13,1 C 60 % 995,3 hPa 0,0 l/m 14,9 km/h (3 Bft) SW 5,5 C 9,0 C 30,3 km/h (5 Bft)
24.12.2013 13:00 13,4 C 60 % 994,7 hPa 0,0 l/m 13,7 km/h (3 Bft) S-SW 5,8 C 9,7 C 26,5 km/h (4 Bft)
24.12.2013 14:00 13,7 C 60 % 994,1 hPa 0,0 l/m 15,2 km/h (3 Bft) SW 6,0 C 9,6 C 27,9 km/h (5 Bft)
24.12.2013 15:00 13,7 C 60 % 993,9 hPa 0,0 l/m 13,7 km/h (3 Bft) S 6,1 C 10,1 C 28,4 km/h (5 Bft)
24.12.2013 16:00 13,6 C 60 % 993,6 hPa 0,0 l/m 13,9 km/h (3 Bft) SO 6,1 C 10,0 C 26,4 km/h (4 Bft)
24.12.2013 17:00 13,6 C 61 % 993,1 hPa 0,0 l/m 11,7 km/h (2 Bft) SW 6,1 C 10,9 C 23,7 km/h (4 Bft)
24.12.2013 18:00 13,5 C 60 % 992,8 hPa 0,0 l/m 11,9 km/h (2 Bft) S-SW 5,8 C 10,7 C 23,6 km/h (4 Bft)
24.12.2013 19:00 13,9 C 61 % 992,6 hPa 0,0 l/m 16,9 km/h (3 Bft) S 6,4 C 9,3 C 33,1 km/h (5 Bft)
24.12.2013 20:00 14,1 C 61 % 992,2 hPa 0,0 l/m 18,9 km/h (3 Bft) S-SW 6,8 C 8,9 C 35,0 km/h (5 Bft)
24.12.2013 21:00 13,7 C 63 % 992,2 hPa 0,0 l/m 17,6 km/h (3 Bft) SW 6,8 C 8,8 C 34,6 km/h (5 Bft)
24.12.2013 22:00 13,7 C 65 % 991,9 hPa 0,0 l/m 17,1 km/h (3 Bft) S-SW 7,2 C 9,0 C 33,0 km/h (5 Bft)
24.12.2013 23:00 13,4 C 66 % 991,7 hPa 0,0 l/m 12,2 km/h (2 Bft) S-SW 7,2 C 10,3 C 22,6 km/h (4 Bft)
25.12.2013 00:00 13,2 C 66 % 991,0 hPa 0,0 l/m 12,8 km/h (3 Bft) S 6,9 C 9,9 C 24,5 km/h (4 Bft)
25.12.2013 01:00 13,3 C 66 % 990,3 hPa 0,0 l/m 14,4 km/h (3 Bft) SW 7,1 C 9,4 C 28,6 km/h (5 Bft)
25.12.2013 02:00 13,2 C 68 % 989,9 hPa 0,0 l/m 14,5 km/h (3 Bft) S-SW 7,3 C 9,2 C 28,2 km/h (5 Bft)
25.12.2013 03:00 13,3 C 65 % 989,2 hPa 0,0 l/m 13,9 km/h (3 Bft) SW 6,9 C 9,6 C 27,1 km/h (5 Bft)
25.12.2013 04:00 13,3 C 66 % 988,5 hPa 0,0 l/m 13,7 km/h (3 Bft) S-SW 7,2 C 9,7 C 27,6 km/h (5 Bft)
25.12.2013 05:00 13,1 C 66 % 987,9 hPa 0,0 l/m 11,7 km/h (2 Bft) S 6,9 C 10,2 C 24,3 km/h (4 Bft)
25.12.2013 06:00 13,1 C 66 % 987,6 hPa 0,0 l/m 17,6 km/h (3 Bft) S-SW 6,9 C 8,1 C 33,8 km/h (5 Bft)
25.12.2013 07:00 13,0 C 68 % 988,0 hPa 0,0 l/m 17,0 km/h (3 Bft) S-SO 7,3 C 8,1 C 33,3 km/h (5 Bft)
25.12.2013 08:00 12,7 C 74 % 988,6 hPa 0,0 l/m 16,1 km/h (3 Bft) S-SW 8,0 C 8,0 C 32,2 km/h (5 Bft)
25.12.2013 09:00 10,1 C 86 % 990,3 hPa 0,8 l/m 7,7 km/h (2 Bft) SW 7,8 C 8,9 C 18,0 km/h (3 Bft)
25.12.2013 10:00 9,6 C 88 % 990,7 hPa 0,0 l/m 4,1 km/h (1 Bft) S-SW 7,8 C 9,6 C 10,2 km/h (2 Bft)
25.12.2013 11:00 9,7 C 89 % 990,8 hPa 0,0 l/m 4,2 km/h (1 Bft) S-SW 7,9 C 9,7 C 8,8 km/h (2 Bft)
25.12.2013 12:00 9,9 C 88 % 990,9 hPa 0,0 l/m 3,1 km/h (1 Bft) S-SW 8,0 C 9,9 C 6,6 km/h (2 Bft)
25.12.2013 13:00 10,2 C 85 % 991,1 hPa 0,0 l/m 4,5 km/h (1 Bft) SW 7,8 C 10,2 C 10,2 km/h (2 Bft)
25.12.2013 14:00 9,9 C 81 % 991,4 hPa 0,0 l/m 2,6 km/h (1 Bft) SW 6,8 C 9,9 C 6,6 km/h (2 Bft)
25.12.2013 15:00 9,1 C 83 % 992,2 hPa 0,0 l/m 0,7 km/h (0 Bft) S 6,3 C 9,1 C 2,0 km/h (1 Bft)
25.12.2013 16:00 7,9 C 85 % 992,9 hPa 0,0 l/m 0,2 km/h (0 Bft) SW 5,5 C 7,9 C 0,9 km/h (0 Bft)
25.12.2013 17:00 7,3 C 87 % 993,7 hPa 0,0 l/m 0,0 km/h (0 Bft) N 5,3 C 7,3 C 0,0 km/h (0 Bft)
25.12.2013 18:00 6,3 C 90 % 993,5 hPa 0,0 l/m 0,0 km/h (0 Bft) N 4,7 C 6,3 C 0,0 km/h (0 Bft)
25.12.2013 19:00 5,6 C 91 % 994,3 hPa 0,0 l/m 0,0 km/h (0 Bft) N 4,2 C 5,6 C 0,0 km/h (0 Bft)
25.12.2013 20:00 5,0 C 93 % 995,0 hPa 0,0 l/m 0,0 km/h (0 Bft) N 3,8 C 5,0 C 0,0 km/h (0 Bft)
25.12.2013 21:00 4,8 C 93 % 995,3 hPa 0,0 l/m 0,0 km/h (0 Bft) N 3,8 C 4,8 C 0,0 km/h (0 Bft)
25.12.2013 22:00 4,5 C 94 % 995,6 hPa 0,0 l/m 0,0 km/h (0 Bft) N 3,6 C 4,5 C 0,0 km/h (0 Bft)
25.12.2013 23:00 3,4 C 94 % 995,6 hPa 0,0 l/m 0,0 km/h (0 Bft) N 2,5 C 3,4 C 0,0 km/h (0 Bft)
26.12.2013 00:00 2,8 C 95 % 996,1 hPa 0,0 l/m 0,0 km/h (0 Bft) N 2,1 C 2,8 C 0,0 km/h (0 Bft)
26.12.2013 01:00 3,1 C 95 % 996,1 hPa 0,0 l/m 0,0 km/h (0 Bft) N 2,4 C 3,1 C 0,0 km/h (0 Bft)
26.12.2013 02:00 2,4 C 95 % 996,1 hPa 0,0 l/m 0,0 km/h (0 Bft) N 1,7 C 2,4 C 0,0 km/h (0 Bft)
26.12.2013 03:00 2,7 C 95 % 996,0 hPa 0,0 l/m 0,0 km/h (0 Bft) N 2,1 C 2,7 C 0,0 km/h (0 Bft)
26.12.2013 04:00 2,4 C 95 % 995,7 hPa 0,0 l/m 0,0 km/h (0 Bft) N 1,8 C 2,4 C 0,0 km/h (0 Bft)
26.12.2013 05:00 3,7 C 96 % 995,5 hPa 0,0 l/m 0,0 km/h (0 Bft) N 3,1 C 3,7 C 0,0 km/h (0 Bft)
26.12.2013 06:00 2,8 C 96 % 995,8 hPa 0,0 l/m 0,3 km/h (0 Bft) N-NO 2,2 C 2,8 C 0,7 km/h (0 Bft)
26.12.2013 07:00 3,5 C 96 % 996,2 hPa 0,0 l/m 1,4 km/h (1 Bft) N-NO 3,0 C 3,5 C 2,4 km/h (1 Bft)
26.12.2013 08:00 3,6 C 96 % 996,3 hPa 0,0 l/m 2,3 km/h (1 Bft) N-NO 3,0 C 3,6 C 3,9 km/h (1 Bft)
26.12.2013 09:00 3,6 C 96 % 996,3 hPa 0,2 l/m 4,3 km/h (1 Bft) NO 3,0 C 3,6 C 6,8 km/h (2 Bft)
26.12.2013 10:00 3,9 C 96 % 996,5 hPa 0,0 l/m 6,2 km/h (2 Bft) N-NO 3,3 C 3,8 C 9,7 km/h (2 Bft)
26.12.2013 11:00 4,0 C 96 % 996,5 hPa 0,0 l/m 6,7 km/h (2 Bft) N-NO 3,4 C 3,6 C 10,2 km/h (2 Bft)
26.12.2013 12:00 4,4 C 96 % 996,0 hPa 0,4 l/m 5,4 km/h (1 Bft) N-NO 3,8 C 4,4 C 8,6 km/h (2 Bft)
26.12.2013 13:00 5,0 C 96 % 995,9 hPa 0,4 l/m 4,6 km/h (1 Bft) N-NO 4,4 C 5,0 C 7,1 km/h (2 Bft)
26.12.2013 14:00 5,3 C 96 % 996,1 hPa 0,2 l/m 2,2 km/h (1 Bft) N-NO 4,7 C 5,3 C 3,7 km/h (1 Bft)
26.12.2013 15:00 5,4 C 96 % 996,5 hPa 0,6 l/m 3,1 km/h (1 Bft) N-NO 4,8 C 5,4 C 5,3 km/h (1 Bft)
26.12.2013 16:00 5,3 C 96 % 997,2 hPa 1,0 l/m 3,0 km/h (1 Bft) N-NO 4,7 C 5,3 C 4,7 km/h (1 Bft)
26.12.2013 17:00 5,3 C 96 % 997,8 hPa 0,8 l/m 0,5 km/h (0 Bft) N-NW 4,7 C 5,3 C 1,1 km/h (0 Bft)
26.12.2013 18:00 5,3 C 96 % 998,1 hPa 0,6 l/m 0,0 km/h (0 Bft) N 4,7 C 5,3 C 0,0 km/h (0 Bft)
26.12.2013 19:00 5,4 C 96 % 998,8 hPa 0,6 l/m 0,0 km/h (0 Bft) W-NW 4,8 C 5,4 C 0,3 km/h (0 Bft)
26.12.2013 20:00 5,2 C 96 % 999,5 hPa 0,0 l/m 1,3 km/h (1 Bft) W 4,6 C 5,2 C 4,7 km/h (1 Bft)
26.12.2013 21:00 5,3 C 96 % 1000,2 hPa 0,2 l/m 2,1 km/h (1 Bft) W 4,7 C 5,3 C 6,4 km/h (2 Bft)
26.12.2013 22:00 5,5 C 96 % 1000,7 hPa 0,0 l/m 2,6 km/h (1 Bft) W 4,9 C 5,5 C 7,5 km/h (2 Bft)
26.12.2013 23:00 5,4 C 96 % 1001,5 hPa 0,0 l/m 4,4 km/h (1 Bft) SW 4,8 C 5,4 C 10,6 km/h (2 Bft)
27.12.2013 00:00 5,1 C 96 % 1002,2 hPa 0,0 l/m 4,5 km/h (1 Bft) SW 4,5 C 5,1 C 10,8 km/h (2 Bft)
27.12.2013 01:00 5,3 C 96 % 1002,5 hPa 0,0 l/m 4,0 km/h (1 Bft) W-NW 4,6 C 5,3 C 10,8 km/h (2 Bft)
27.12.2013 02:00 5,3 C 94 % 1003,1 hPa 0,0 l/m 3,2 km/h (1 Bft) S-SW 4,4 C 5,3 C 7,9 km/h (2 Bft)
27.12.2013 03:00 5,3 C 93 % 1003,6 hPa 0,0 l/m 3,7 km/h (1 Bft) S-SW 4,2 C 5,3 C 8,3 km/h (2 Bft)
27.12.2013 04:00 5,2 C 89 % 1003,7 hPa 0,0 l/m 5,2 km/h (1 Bft) S-SW 3,5 C 5,2 C 11,3 km/h (2 Bft)
27.12.2013 05:00 4,2 C 90 % 1003,9 hPa 0,0 l/m 3,9 km/h (1 Bft) S-SW 2,7 C 4,2 C 8,4 km/h (2 Bft)
27.12.2013 06:00 3,2 C 89 % 1003,6 hPa 0,0 l/m 3,1 km/h (1 Bft) S 1,6 C 3,2 C 7,4 km/h (2 Bft)
27.12.2013 07:00 2,4 C 90 % 1003,3 hPa 0,0 l/m 2,9 km/h (1 Bft) S-SO 0,9 C 2,4 C 6,4 km/h (2 Bft)
27.12.2013 08:00 2,5 C 90 % 1002,8 hPa 0,0 l/m 4,0 km/h (1 Bft) S-SO 1,0 C 2,5 C 8,0 km/h (2 Bft)
27.12.2013 09:00 3,3 C 88 % 1002,3 hPa 0,0 l/m 5,5 km/h (2 Bft) S 1,6 C 3,1 C 12,6 km/h (3 Bft)
27.12.2013 10:00 5,0 C 84 % 1001,8 hPa 0,0 l/m 9,1 km/h (2 Bft) S-SW 2,5 C 2,7 C 19,8 km/h (4 Bft)
27.12.2013 11:00 6,0 C 79 % 1000,4 hPa 0,0 l/m 10,4 km/h (2 Bft) S 2,7 C 3,0 C 21,0 km/h (4 Bft)
27.12.2013 12:00 6,8 C 75 % 1000,6 hPa 0,0 l/m 10,6 km/h (2 Bft) S 2,7 C 3,9 C 20,1 km/h (4 Bft)
27.12.2013 13:00 7,4 C 70 % 999,6 hPa 0,0 l/m 12,1 km/h (2 Bft) S-SW 2,3 C 3,6 C 23,7 km/h (4 Bft)
27.12.2013 14:00 8,0 C 66 % 999,0 hPa 0,0 l/m 12,3 km/h (2 Bft) S-SW 2,1 C 4,2 C 24,3 km/h (4 Bft)
27.12.2013 15:00 8,4 C 63 % 998,7 hPa 0,0 l/m 12,1 km/h (2 Bft) S-SO 1,8 C 4,7 C 26,0 km/h (4 Bft)
27.12.2013 16:00 8,7 C 65 % 998,1 hPa 0,0 l/m 10,5 km/h (2 Bft) S 2,4 C 5,9 C 21,6 km/h (4 Bft)
27.12.2013 17:00 8,8 C 69 % 998,4 hPa 0,0 l/m 9,0 km/h (2 Bft) S-SW 3,3 C 7,0 C 18,9 km/h (3 Bft)
27.12.2013 18:00 8,9 C 71 % 998,1 hPa 0,0 l/m 14,2 km/h (3 Bft) S-SW 3,9 C 4,2 C 28,0 km/h (5 Bft)
27.12.2013 19:00 9,0 C 70 % 998,4 hPa 0,0 l/m 14,6 km/h (3 Bft) S-SW 3,7 C 4,2 C 29,0 km/h (5 Bft)
27.12.2013 20:00 8,7 C 71 % 998,4 hPa 0,0 l/m 14,8 km/h (3 Bft) SW 3,7 C 3,7 C 28,4 km/h (5 Bft)
27.12.2013 21:00 8,5 C 71 % 998,6 hPa 0,0 l/m 13,7 km/h (3 Bft) S 3,6 C 4,0 C 26,1 km/h (4 Bft)
27.12.2013 22:00 8,6 C 73 % 998,5 hPa 0,0 l/m 12,1 km/h (2 Bft) S-SW 4,2 C 4,9 C 23,5 km/h (4 Bft)
27.12.2013 23:00 9,1 C 76 % 998,3 hPa 0,0 l/m 11,0 km/h (2 Bft) S 5,0 C 6,0 C 23,3 km/h (4 Bft)
28.12.2013 00:00 9,6 C 76 % 998,2 hPa 0,0 l/m 12,8 km/h (3 Bft) S-SW 5,7 C 5,7 C 25,2 km/h (4 Bft)
28.12.2013 01:00 9,9 C 77 % 998,1 hPa 0,0 l/m 12,7 km/h (3 Bft) S-SW 6,1 C 6,1 C 24,3 km/h (4 Bft)
28.12.2013 02:00 10,4 C 78 % 998,1 hPa 0,0 l/m 12,4 km/h (2 Bft) S-SW 6,7 C 6,7 C 23,4 km/h (4 Bft)
28.12.2013 03:00 10,7 C 78 % 997,7 hPa 0,0 l/m 11,6 km/h (2 Bft) S 7,1 C 7,6 C 23,4 km/h (4 Bft)
28.12.2013 04:00 11,2 C 78 % 997,4 hPa 0,0 l/m 10,7 km/h (2 Bft) SW 7,5 C 8,6 C 21,6 km/h (4 Bft)
28.12.2013 05:00 11,1 C 79 % 996,9 hPa 0,0 l/m 8,8 km/h (2 Bft) S-SW 7,5 C 9,5 C 18,5 km/h (3 Bft)
28.12.2013 06:00 10,5 C 80 % 996,5 hPa 0,0 l/m 8,6 km/h (2 Bft) S-SO 7,2 C 9,1 C 16,9 km/h (3 Bft)
28.12.2013 07:00 9,4 C 81 % 996,6 hPa 0,0 l/m 7,7 km/h (2 Bft) S-SO 6,3 C 8,5 C 15,4 km/h (3 Bft)
28.12.2013 08:00 10,2 C 78 % 996,9 hPa 0,0 l/m 8,1 km/h (2 Bft) S-SW 6,6 C 8,9 C 16,2 km/h (3 Bft)
28.12.2013 09:00 10,1 C 79 % 997,6 hPa 0,0 l/m 6,2 km/h (2 Bft) S-SW 6,6 C 9,8 C 13,4 km/h (3 Bft)
28.12.2013 10:00 9,3 C 82 % 998,8 hPa 0,0 l/m 4,7 km/h (1 Bft) W-NW 6,4 C 9,1 C 12,5 km/h (2 Bft)
28.12.2013 11:00 7,3 C 90 % 1000,0 hPa 0,2 l/m 4,4 km/h (1 Bft) W-NW 5,8 C 7,2 C 9,3 km/h (2 Bft)
28.12.2013 12:00 7,1 C 91 % 1000,4 hPa 0,2 l/m 1,1 km/h (0 Bft) W 5,7 C 7,1 C 3,2 km/h (1 Bft)
28.12.2013 13:00 7,1 C 91 % 1000,8 hPa 0,2 l/m 1,5 km/h (1 Bft) S-SW 5,7 C 7,1 C 4,3 km/h (1 Bft)
28.12.2013 14:00 6,9 C 92 % 1001,3 hPa 0,0 l/m 2,5 km/h (1 Bft) S-SW 5,7 C 6,9 C 5,6 km/h (2 Bft)
28.12.2013 15:00 6,8 C 92 % 1001,1 hPa 0,0 l/m 3,2 km/h (1 Bft) S-SW 5,7 C 6,8 C 6,4 km/h (2 Bft)
28.12.2013 16:00 6,7 C 92 % 1002,0 hPa 0,0 l/m 2,8 km/h (1 Bft) S-SW 5,5 C 6,7 C 6,4 km/h (2 Bft)
28.12.2013 17:00 6,3 C 92 % 1002,6 hPa 0,0 l/m 1,2 km/h (1 Bft) SW 5,1 C 6,3 C 4,3 km/h (1 Bft)
28.12.2013 18:00 6,1 C 92 % 1002,9 hPa 0,0 l/m 0,0 km/h (0 Bft) N 4,8 C 6,1 C 0,0 km/h (0 Bft)
28.12.2013 19:00 5,2 C 93 % 1003,4 hPa 0,0 l/m 0,0 km/h (0 Bft) N 4,2 C 5,2 C 0,0 km/h (0 Bft)
28.12.2013 20:00 4,4 C 94 % 1003,6 hPa 0,0 l/m 0,1 km/h (0 Bft) N 3,5 C 4,4 C 0,4 km/h (0 Bft)
28.12.2013 21:00 3,9 C 95 % 1004,1 hPa 0,0 l/m 0,0 km/h (0 Bft) N 3,2 C 3,9 C 0,0 km/h (0 Bft)
28.12.2013 22:00 3,6 C 95 % 1004,5 hPa 0,0 l/m 0,0 km/h (0 Bft) N 2,9 C 3,6 C 0,0 km/h (0 Bft)
28.12.2013 23:00 3,6 C 95 % 1004,3 hPa 0,0 l/m 0,0 km/h (0 Bft) N 2,9 C 3,6 C 0,0 km/h (0 Bft)
29.12.2013 00:00 4,1 C 96 % 1004,9 hPa 0,2 l/m 0,0 km/h (0 Bft) N 3,5 C 4,1 C 0,0 km/h (0 Bft)
29.12.2013 01:00 4,5 C 96 % 1005,3 hPa 0,4 l/m 0,3 km/h (0 Bft) SW 3,9 C 4,5 C 1,6 km/h (1 Bft)
29.12.2013 02:00 4,8 C 96 % 1005,9 hPa 0,2 l/m 1,4 km/h (1 Bft) W-NW 4,2 C 4,8 C 4,2 km/h (1 Bft)
29.12.2013 03:00 4,9 C 94 % 1006,8 hPa 1,4 l/m 1,8 km/h (1 Bft) W 4,0 C 4,9 C 4,8 km/h (1 Bft)
29.12.2013 04:00 4,6 C 94 % 1007,6 hPa 1,6 l/m 1,2 km/h (1 Bft) SW 3,7 C 4,6 C 4,3 km/h (1 Bft)
29.12.2013 05:00 4,3 C 94 % 1008,2 hPa 1,0 l/m 3,6 km/h (1 Bft) S-SW 3,5 C 4,3 C 7,5 km/h (2 Bft)
29.12.2013 06:00 4,2 C 94 % 1008,9 hPa 0,4 l/m 3,8 km/h (1 Bft) S-SW 3,3 C 4,2 C 8,2 km/h (2 Bft)
29.12.2013 07:00 4,4 C 93 % 1009,6 hPa 0,0 l/m 4,2 km/h (1 Bft) SW 3,4 C 4,4 C 9,8 km/h (2 Bft)
29.12.2013 08:00 4,6 C 93 % 1010,3 hPa 0,0 l/m 4,0 km/h (1 Bft) S-SW 3,6 C 4,6 C 10,1 km/h (2 Bft)
29.12.2013 09:00 4,7 C 93 % 1011,2 hPa 0,0 l/m 3,6 km/h (1 Bft) S-SW 3,7 C 4,7 C 8,6 km/h (2 Bft)
29.12.2013 10:00 5,2 C 92 % 1012,2 hPa 0,0 l/m 4,7 km/h (1 Bft) SW 4,0 C 5,2 C 10,8 km/h (2 Bft)
29.12.2013 11:00 5,7 C 90 % 1012,6 hPa 0,0 l/m 5,8 km/h (2 Bft) SW 4,2 C 5,5 C 14,1 km/h (3 Bft)
29.12.2013 12:00 5,9 C 89 % 1012,8 hPa 0,0 l/m 7,1 km/h (2 Bft) SW 4,2 C 5,2 C 14,5 km/h (3 Bft)
29.12.2013 13:00 5,6 C 90 % 1013,4 hPa 1,0 l/m 6,5 km/h (2 Bft) S-SW 4,1 C 4,9 C 14,5 km/h (3 Bft)
29.12.2013 14:00 5,6 C 91 % 1014,5 hPa 0,0 l/m 3,0 km/h (1 Bft) S-SW 4,2 C 5,6 C 7,6 km/h (2 Bft)
29.12.2013 15:00 5,7 C 88 % 1015,5 hPa 0,0 l/m 5,1 km/h (1 Bft) SW 4,0 C 5,7 C 11,3 km/h (2 Bft)
29.12.2013 16:00 5,3 C 89 % 1016,5 hPa 0,0 l/m 3,5 km/h (1 Bft) SW 3,5 C 5,3 C 8,6 km/h (2 Bft)
29.12.2013 17:00 4,8 C 89 % 1017,3 hPa 0,0 l/m 3,6 km/h (1 Bft) SW 3,1 C 4,8 C 9,2 km/h (2 Bft)
29.12.2013 18:00 4,7 C 89 % 1018,1 hPa 0,0 l/m 4,4 km/h (1 Bft) SW 3,0 C 4,7 C 10,6 km/h (2 Bft)
29.12.2013 19:00 4,6 C 89 % 1018,9 hPa 0,0 l/m 4,7 km/h (1 Bft) S-SO 2,9 C 4,6 C 11,7 km/h (2 Bft)
29.12.2013 20:00 4,6 C 89 % 1019,4 hPa 0,0 l/m 5,6 km/h (2 Bft) SW 2,9 C 4,4 C 14,8 km/h (3 Bft)
29.12.2013 21:00 4,7 C 88 % 1020,3 hPa 0,0 l/m 5,2 km/h (1 Bft) SW 3,0 C 4,7 C 12,8 km/h (3 Bft)
29.12.2013 22:00 4,8 C 88 % 1021,0 hPa 0,0 l/m 5,4 km/h (2 Bft) SW 2,9 C 4,7 C 13,3 km/h (3 Bft)
29.12.2013 23:00 4,8 C 88 % 1021,6 hPa 0,0 l/m 4,8 km/h (1 Bft) S-SW 3,0 C 4,8 C 13,4 km/h (3 Bft)
Min-Datum _ 26.12.13 24.12.13 25.12.13 - 23.12.13 - 27.12.13 27.12.13 23.12.13
_ Min-Zeit 04:45 18:30 06:15 - 09:50 - 07:30 11:10 09:50
Minimum _ 2,1 C 58 % 987,5 hPa - 0,0 km/h (0 Bft) - 0,8 C 0,4 C 0,0 km/h (0 Bft)
Max-Datum _ 24.12.13 26.12.13 29.12.13 23.12.13 24.12.13 - 25.12.13 24.12.13 24.12.13
_ Max-Zeit 20:05 03:40 23:50 08:30 19:55 - 09:00 17:45 19:55
Maximum _ 14,2 C 96 % 1022,0 hPa 2,4 l/m 22,5 km/h
S (4 Bft)
- 8,6 C 13,5 C 49,9 km/h
S-SW (7 Bft)
Durchschnitt _ 7,4 C 83 % 1001,5 hPa #16,2 l/m 6,8 km/h (2 Bft) S-SW 4,6 C 6,0 C 13,9 km/h (3 Bft)